sensor_id;sensor_type;location;lat;lon;timestamp;pressure;altitude;pressure_sealevel;temperature;humidity
2036;BME280;23642;42.658;23.350;2023-01-28T00:01:53;48700.41;;;-146.31;95.69
2036;BME280;23642;42.658;23.350;2023-01-28T00:04:22;48683.91;;;-146.31;95.41
2036;BME280;23642;42.658;23.350;2023-01-28T00:06:48;48685.97;;;-146.31;95.45
2036;BME280;23642;42.658;23.350;2023-01-28T00:09:15;48634.44;;;-146.31;96.24
2036;BME280;23642;42.658;23.350;2023-01-28T00:11:42;48688.03;;;-146.31;95.87
2036;BME280;23642;42.658;23.350;2023-01-28T00:14:10;48698.34;;;-146.31;95.70
2036;BME280;23642;42.658;23.350;2023-01-28T00:16:37;48681.84;;;-146.31;95.83
2036;BME280;23642;42.658;23.350;2023-01-28T00:19:04;48718.97;;;-146.31;95.36
2036;BME280;23642;42.658;23.350;2023-01-28T00:21:33;48690.09;;;-146.31;95.88
2036;BME280;23642;42.658;23.350;2023-01-28T00:24:00;48690.09;;;-146.31;95.56
2036;BME280;23642;42.658;23.350;2023-01-28T00:26:27;48673.59;;;-146.31;95.96
2036;BME280;23642;42.658;23.350;2023-01-28T00:28:54;48679.78;;;-146.31;95.62
2036;BME280;23642;42.658;23.350;2023-01-28T00:31:21;48741.63;;;-146.31;95.46
2036;BME280;23642;42.658;23.350;2023-01-28T00:33:50;48791.09;;;-146.31;94.97
2036;BME280;23642;42.658;23.350;2023-01-28T00:36:18;48774.63;;;-146.31;94.89
2036;BME280;23642;42.658;23.350;2023-01-28T00:38:50;48782.84;;;-146.31;94.84
2036;BME280;23642;42.658;23.350;2023-01-28T00:41:18;48807.59;;;-146.31;94.83
2036;BME280;23642;42.658;23.350;2023-01-28T00:43:46;48805.53;;;-146.31;94.69
2036;BME280;23642;42.658;23.350;2023-01-28T00:46:14;48795.22;;;-146.31;94.85
2036;BME280;23642;42.658;23.350;2023-01-28T00:48:42;48819.97;;;-146.31;94.91
2036;BME280;23642;42.658;23.350;2023-01-28T00:51:10;48807.59;;;-146.31;94.84
2036;BME280;23642;42.658;23.350;2023-01-28T00:53:38;48786.97;;;-146.31;94.78
2036;BME280;23642;42.658;23.350;2023-01-28T00:56:07;48815.84;;;-146.31;94.86
2036;BME280;23642;42.658;23.350;2023-01-28T00:58:34;48799.34;;;-146.31;94.76
2036;BME280;23642;42.658;23.350;2023-01-28T01:01:06;48797.28;;;-146.31;95.33
2036;BME280;23642;42.658;23.350;2023-01-28T01:03:33;48838.53;;;-146.31;94.79
2036;BME280;23642;42.658;23.350;2023-01-28T01:06:00;48840.56;;;-146.31;94.95
2036;BME280;23642;42.658;23.350;2023-01-28T01:08:27;48828.22;;;-146.31;94.65
2036;BME280;23642;42.658;23.350;2023-01-28T01:10:59;48803.47;;;-146.31;95.11
2036;BME280;23642;42.658;23.350;2023-01-28T01:13:28;48848.81;;;-146.31;95.00
2036;BME280;23642;42.658;23.350;2023-01-28T01:16:01;48836.47;;;-146.31;94.59
2036;BME280;23642;42.658;23.350;2023-01-28T01:18:28;48855.00;;;-146.31;94.85
2036;BME280;23642;42.658;23.350;2023-01-28T01:20:55;48848.81;;;-146.31;94.65
2036;BME280;23642;42.658;23.350;2023-01-28T01:23:23;48881.81;;;-146.31;94.43
2036;BME280;23642;42.658;23.350;2023-01-28T01:25:51;48826.16;;;-146.31;95.00
2036;BME280;23642;42.658;23.350;2023-01-28T01:28:17;48838.53;;;-146.31;95.12
2036;BME280;23642;42.658;23.350;2023-01-28T01:30:46;48850.88;;;-146.31;95.26
2036;BME280;23642;42.658;23.350;2023-01-28T01:33:13;48883.88;;;-146.31;94.71
2036;BME280;23642;42.658;23.350;2023-01-28T01:35:51;48881.81;;;-146.31;94.39
2036;BME280;23642;42.658;23.350;2023-01-28T01:38:18;48869.44;;;-146.31;94.78
2036;BME280;23642;42.658;23.350;2023-01-28T01:40:45;48881.81;;;-146.31;94.72
2036;BME280;23642;42.658;23.350;2023-01-28T01:43:15;48842.63;;;-146.31;94.85
2036;BME280;23642;42.658;23.350;2023-01-28T01:45:43;48867.38;;;-146.31;94.83
2036;BME280;23642;42.658;23.350;2023-01-28T01:48:16;48873.56;;;-146.31;94.96
2036;BME280;23642;42.658;23.350;2023-01-28T01:50:50;48865.31;;;-146.31;95.31
2036;BME280;23642;42.658;23.350;2023-01-28T01:53:19;48863.25;;;-146.31;94.94
2036;BME280;23642;42.658;23.350;2023-01-28T01:55:50;48832.34;;;-146.31;94.88
2036;BME280;23642;42.658;23.350;2023-01-28T01:58:22;48834.41;;;-146.31;95.44
2036;BME280;23642;42.658;23.350;2023-01-28T02:00:50;48838.53;;;-146.31;95.38
2036;BME280;23642;42.658;23.350;2023-01-28T02:03:25;48838.53;;;-146.31;94.96
2036;BME280;23642;42.658;23.350;2023-01-28T02:05:54;48797.28;;;-146.31;95.46
2036;BME280;23642;42.658;23.350;2023-01-28T02:08:21;48840.56;;;-146.31;95.42
2036;BME280;23642;42.658;23.350;2023-01-28T02:10:51;48809.66;;;-146.31;95.26
2036;BME280;23642;42.658;23.350;2023-01-28T02:13:20;48815.84;;;-146.31;95.35
2036;BME280;23642;42.658;23.350;2023-01-28T02:15:48;48797.28;;;-146.31;95.42
2036;BME280;23642;42.658;23.350;2023-01-28T02:18:15;48811.72;;;-146.31;95.22
2036;BME280;23642;42.658;23.350;2023-01-28T02:20:57;48799.34;;;-146.31;95.24
2036;BME280;23642;42.658;23.350;2023-01-28T02:23:44;48803.47;;;-146.31;95.39
2036;BME280;23642;42.658;23.350;2023-01-28T02:29:15;48844.69;;;-146.31;95.63
2036;BME280;23642;42.658;23.350;2023-01-28T02:31:50;48811.72;;;-146.31;95.21
2036;BME280;23642;42.658;23.350;2023-01-28T02:34:24;48840.56;;;-146.31;95.45
2036;BME280;23642;42.658;23.350;2023-01-28T02:36:56;48850.88;;;-146.31;94.71
2036;BME280;23642;42.658;23.350;2023-01-28T02:39:28;48863.25;;;-146.31;94.81
2036;BME280;23642;42.658;23.350;2023-01-28T02:41:58;48848.81;;;-146.31;94.69
2036;BME280;23642;42.658;23.350;2023-01-28T02:44:29;48904.47;;;-146.31;94.91
2036;BME280;23642;42.658;23.350;2023-01-28T02:46:55;48896.25;;;-146.31;94.70
2036;BME280;23642;42.658;23.350;2023-01-28T02:49:42;48885.94;;;-146.31;95.12
2036;BME280;23642;42.658;23.350;2023-01-28T02:55:29;48906.53;;;-146.31;94.98
2036;BME280;23642;42.658;23.350;2023-01-28T02:58:10;48912.72;;;-146.31;94.46
2036;BME280;23642;42.658;23.350;2023-01-28T03:00:49;48885.94;;;-146.31;94.87
2036;BME280;23642;42.658;23.350;2023-01-28T03:03:24;48933.34;;;-146.31;94.41
2036;BME280;23642;42.658;23.350;2023-01-28T03:05:56;48912.72;;;-146.31;95.00
2036;BME280;23642;42.658;23.350;2023-01-28T03:08:37;48916.84;;;-146.31;94.86
2036;BME280;23642;42.658;23.350;2023-01-28T03:11:25;48951.91;;;-146.31;94.88
2036;BME280;23642;42.658;23.350;2023-01-28T03:14:18;48933.34;;;-146.31;94.68
2036;BME280;23642;42.658;23.350;2023-01-28T03:17:04;48945.72;;;-146.31;94.79
2036;BME280;23642;42.658;23.350;2023-01-28T03:19:51;48935.41;;;-146.31;94.79
2036;BME280;23642;42.658;23.350;2023-01-28T03:22:38;48910.66;;;-146.31;94.76
2036;BME280;23642;42.658;23.350;2023-01-28T03:25:27;48939.53;;;-146.31;94.86
2036;BME280;23642;42.658;23.350;2023-01-28T03:28:15;48951.91;;;-146.31;94.84
2036;BME280;23642;42.658;23.350;2023-01-28T03:31:04;48976.63;;;-146.31;94.45
2036;BME280;23642;42.658;23.350;2023-01-28T03:33:51;48949.84;;;-146.31;94.39
2036;BME280;23642;42.658;23.350;2023-01-28T03:36:36;48933.34;;;-146.31;94.98
2036;BME280;23642;42.658;23.350;2023-01-28T03:39:17;48929.22;;;-146.31;94.48
2036;BME280;23642;42.658;23.350;2023-01-28T03:41:58;48947.78;;;-146.31;94.69
2036;BME280;23642;42.658;23.350;2023-01-28T03:44:25;48951.91;;;-146.31;94.74
2036;BME280;23642;42.658;23.350;2023-01-28T03:47:10;48923.03;;;-146.31;94.68
2036;BME280;23642;42.658;23.350;2023-01-28T03:49:40;48966.31;;;-146.31;94.69
2036;BME280;23642;42.658;23.350;2023-01-28T03:52:08;48966.31;;;-146.31;94.45
2036;BME280;23642;42.658;23.350;2023-01-28T03:54:36;48949.84;;;-146.31;94.43
2036;BME280;23642;42.658;23.350;2023-01-28T03:57:03;48953.97;;;-146.31;94.61
2036;BME280;23642;42.658;23.350;2023-01-28T03:59:31;48997.25;;;-146.31;94.18
2036;BME280;23642;42.658;23.350;2023-01-28T04:01:59;48976.63;;;-146.31;94.76
2036;BME280;23642;42.658;23.350;2023-01-28T04:04:27;48964.25;;;-146.31;94.81
2036;BME280;23642;42.658;23.350;2023-01-28T04:06:56;48945.72;;;-146.31;94.59
2036;BME280;23642;42.658;23.350;2023-01-28T04:09:23;48986.94;;;-146.31;94.52
2036;BME280;23642;42.658;23.350;2023-01-28T04:11:50;48984.88;;;-146.31;94.33
2036;BME280;23642;42.658;23.350;2023-01-28T04:14:17;48976.63;;;-146.31;94.92
2036;BME280;23642;42.658;23.350;2023-01-28T04:16:44;49011.69;;;-146.31;94.35
2036;BME280;23642;42.658;23.350;2023-01-28T04:19:11;48976.63;;;-146.31;94.26
2036;BME280;23642;42.658;23.350;2023-01-28T04:21:38;49009.63;;;-146.31;94.36
2036;BME280;23642;42.658;23.350;2023-01-28T04:24:07;49001.38;;;-146.31;94.41
2036;BME280;23642;42.658;23.350;2023-01-28T04:26:34;49003.44;;;-146.31;94.77
2036;BME280;23642;42.658;23.350;2023-01-28T04:29:01;48993.13;;;-146.31;94.06
2036;BME280;23642;42.658;23.350;2023-01-28T04:31:28;49065.28;;;-146.31;94.26
2036;BME280;23642;42.658;23.350;2023-01-28T04:33:55;48993.13;;;-146.31;94.59
2036;BME280;23642;42.658;23.350;2023-01-28T04:36:22;49022.00;;;-146.31;94.26
2036;BME280;23642;42.658;23.350;2023-01-28T04:38:48;48997.25;;;-146.31;94.72
2036;BME280;23642;42.658;23.350;2023-01-28T04:41:16;48951.91;;;-146.31;95.04
2036;BME280;23642;42.658;23.350;2023-01-28T04:43:43;48951.91;;;-146.31;94.95
2036;BME280;23642;42.658;23.350;2023-01-28T04:46:10;48923.03;;;-146.31;95.64
2036;BME280;23642;42.658;23.350;2023-01-28T04:48:38;48931.28;;;-146.31;95.41
2036;BME280;23642;42.658;23.350;2023-01-28T04:51:05;48877.69;;;-146.31;95.70
2036;BME280;23642;42.658;23.350;2023-01-28T04:53:33;48838.53;;;-146.31;95.69
2036;BME280;23642;42.658;23.350;2023-01-28T04:56:00;48832.34;;;-146.31;95.86
2036;BME280;23642;42.658;23.350;2023-01-28T04:58:28;48836.47;;;-146.31;96.01
2036;BME280;23642;42.658;23.350;2023-01-28T05:00:55;48819.97;;;-146.31;95.98
2036;BME280;23642;42.658;23.350;2023-01-28T05:03:22;48799.34;;;-146.31;96.16
2036;BME280;23642;42.658;23.350;2023-01-28T05:05:49;48768.44;;;-146.31;96.29
2036;BME280;23642;42.658;23.350;2023-01-28T05:08:16;48727.19;;;-146.31;96.82
2036;BME280;23642;42.658;23.350;2023-01-28T05:10:44;48667.44;;;-146.31;96.63
2036;BME280;23642;42.658;23.350;2023-01-28T05:13:10;48685.97;;;-146.31;96.74
2036;BME280;23642;42.658;23.350;2023-01-28T05:15:38;48690.09;;;-146.31;97.02
2036;BME280;23642;42.658;23.350;2023-01-28T05:18:05;48605.59;;;-146.31;96.71
2036;BME280;23642;42.658;23.350;2023-01-28T05:20:32;48620.00;;;-146.31;96.96
2036;BME280;23642;42.658;23.350;2023-01-28T05:22:59;48642.69;;;-146.31;96.44
2036;BME280;23642;42.658;23.350;2023-01-28T05:25:25;48675.66;;;-146.31;96.45
2036;BME280;23642;42.658;23.350;2023-01-28T05:27:53;48667.44;;;-146.31;96.38
2036;BME280;23642;42.658;23.350;2023-01-28T05:30:20;48712.78;;;-146.31;96.22
2036;BME280;23642;42.658;23.350;2023-01-28T05:32:48;48714.84;;;-146.31;96.04
2036;BME280;23642;42.658;23.350;2023-01-28T05:35:15;48758.13;;;-146.31;95.58
2036;BME280;23642;42.658;23.350;2023-01-28T05:37:42;48754.00;;;-146.31;95.94
2036;BME280;23642;42.658;23.350;2023-01-28T05:40:09;48768.44;;;-146.31;95.45
2036;BME280;23642;42.658;23.350;2023-01-28T05:42:36;48793.16;;;-146.31;95.40
2036;BME280;23642;42.658;23.350;2023-01-28T05:45:04;48869.44;;;-146.31;95.05
2036;BME280;23642;42.658;23.350;2023-01-28T05:47:41;48879.75;;;-146.31;94.71
2036;BME280;23642;42.658;23.350;2023-01-28T05:50:41;48923.03;;;-146.31;94.33
2036;BME280;23642;42.658;23.350;2023-01-28T05:53:25;48941.59;;;-146.31;94.57
2036;BME280;23642;42.658;23.350;2023-01-28T05:55:52;48939.53;;;-146.31;94.36
2036;BME280;23642;42.658;23.350;2023-01-28T05:58:20;48980.75;;;-146.31;94.10
2036;BME280;23642;42.658;23.350;2023-01-28T06:00:47;48989.00;;;-146.31;93.76
2036;BME280;23642;42.658;23.350;2023-01-28T06:03:14;49003.44;;;-146.31;93.88
2036;BME280;23642;42.658;23.350;2023-01-28T06:05:44;49019.94;;;-146.31;93.76
2036;BME280;23642;42.658;23.350;2023-01-28T06:08:11;49015.81;;;-146.31;94.36
2036;BME280;23642;42.658;23.350;2023-01-28T06:10:47;49046.72;;;-146.31;93.95
2036;BME280;23642;42.658;23.350;2023-01-28T06:13:14;49038.47;;;-146.31;93.89
2036;BME280;23642;42.658;23.350;2023-01-28T06:15:41;49077.66;;;-146.31;93.55
2036;BME280;23642;42.658;23.350;2023-01-28T06:18:08;49104.44;;;-146.31;93.36
2036;BME280;23642;42.658;23.350;2023-01-28T06:20:34;49075.59;;;-146.31;93.60
2036;BME280;23642;42.658;23.350;2023-01-28T06:23:02;49102.38;;;-146.31;93.50
2036;BME280;23642;42.658;23.350;2023-01-28T06:25:29;49092.09;;;-146.31;93.86
2036;BME280;23642;42.658;23.350;2023-01-28T06:27:56;49085.91;;;-146.31;93.76
2036;BME280;23642;42.658;23.350;2023-01-28T06:30:23;49112.69;;;-146.31;93.99
2036;BME280;23642;42.658;23.350;2023-01-28T06:32:53;49118.88;;;-146.31;93.96
2036;BME280;23642;42.658;23.350;2023-01-28T06:35:20;49106.50;;;-146.31;93.81
2036;BME280;23642;42.658;23.350;2023-01-28T06:37:47;49120.94;;;-146.31;93.69
2036;BME280;23642;42.658;23.350;2023-01-28T06:40:15;49127.13;;;-146.31;93.51
2036;BME280;23642;42.658;23.350;2023-01-28T06:42:42;49137.44;;;-146.31;93.74
2036;BME280;23642;42.658;23.350;2023-01-28T06:45:10;49141.56;;;-146.31;93.27
2036;BME280;23642;42.658;23.350;2023-01-28T06:47:37;49160.13;;;-146.31;93.45
2036;BME280;23642;42.658;23.350;2023-01-28T06:50:04;49172.47;;;-146.31;93.53
2036;BME280;23642;42.658;23.350;2023-01-28T06:52:31;49166.28;;;-146.31;93.08
2036;BME280;23642;42.658;23.350;2023-01-28T06:54:58;49153.94;;;-146.31;93.60
2036;BME280;23642;42.658;23.350;2023-01-28T06:57:36;49168.34;;;-146.31;93.14
2036;BME280;23642;42.658;23.350;2023-01-28T07:00:03;49193.09;;;-146.31;93.58
2036;BME280;23642;42.658;23.350;2023-01-28T07:02:30;49156.00;;;-146.31;93.15
2036;BME280;23642;42.658;23.350;2023-01-28T07:04:57;49184.84;;;-146.31;93.67
2036;BME280;23642;42.658;23.350;2023-01-28T07:07:24;49170.41;;;-146.31;93.67
2036;BME280;23642;42.658;23.350;2023-01-28T07:09:53;49207.53;;;-146.31;92.98
2036;BME280;23642;42.658;23.350;2023-01-28T07:12:20;49224.03;;;-146.31;93.11
2036;BME280;23642;42.658;23.350;2023-01-28T07:14:48;49215.78;;;-146.31;93.52
2036;BME280;23642;42.658;23.350;2023-01-28T07:17:15;49213.72;;;-146.31;93.10
2036;BME280;23642;42.658;23.350;2023-01-28T07:19:42;49224.03;;;-146.31;93.40
2036;BME280;23642;42.658;23.350;2023-01-28T07:22:08;49199.28;;;-146.31;93.30
2036;BME280;23642;42.658;23.350;2023-01-28T07:24:35;49259.06;;;-146.31;92.84
2036;BME280;23642;42.658;23.350;2023-01-28T07:27:02;49226.09;;;-146.31;93.27
2036;BME280;23642;42.658;23.350;2023-01-28T07:29:30;49230.22;;;-146.31;92.88
2036;BME280;23642;42.658;23.350;2023-01-28T07:31:58;49252.88;;;-146.31;92.69
2036;BME280;23642;42.658;23.350;2023-01-28T07:34:25;49275.56;;;-146.31;92.60
2036;BME280;23642;42.658;23.350;2023-01-28T07:36:54;49269.38;;;-146.31;92.68
2036;BME280;23642;42.658;23.350;2023-01-28T07:39:22;49283.81;;;-146.31;92.76
2036;BME280;23642;42.658;23.350;2023-01-28T07:41:51;49294.13;;;-146.31;92.59
2036;BME280;23642;42.658;23.350;2023-01-28T07:44:18;49290.00;;;-146.31;92.49
2036;BME280;23642;42.658;23.350;2023-01-28T07:46:45;49310.63;;;-146.31;92.53
2036;BME280;23642;42.658;23.350;2023-01-28T07:49:13;49380.72;;;-146.31;92.52
2036;BME280;23642;42.658;23.350;2023-01-28T07:51:40;49358.03;;;-146.31;92.45
2036;BME280;23642;42.658;23.350;2023-01-28T07:54:07;49401.34;;;-146.31;92.24
2036;BME280;23642;42.658;23.350;2023-01-28T07:56:34;49440.50;;;-146.31;91.59
2036;BME280;23642;42.658;23.350;2023-01-28T07:59:01;49467.31;;;-146.31;91.45
2036;BME280;23642;42.658;23.350;2023-01-28T08:01:28;49514.72;;;-146.31;91.69
2036;BME280;23642;42.658;23.350;2023-01-28T08:03:55;49514.72;;;-146.31;91.02
2036;BME280;23642;42.658;23.350;2023-01-28T08:06:23;49537.41;;;-146.31;90.71
2036;BME280;23642;42.658;23.350;2023-01-28T08:08:50;49555.97;;;-146.31;90.81
2036;BME280;23642;42.658;23.350;2023-01-28T08:11:17;49562.16;;;-146.31;91.33
2036;BME280;23642;42.658;23.350;2023-01-28T08:13:46;49549.78;;;-146.31;91.20
2036;BME280;23642;42.658;23.350;2023-01-28T08:16:16;49551.84;;;-146.31;91.14
2036;BME280;23642;42.658;23.350;2023-01-28T08:18:44;49551.84;;;-146.31;90.82
2036;BME280;23642;42.658;23.350;2023-01-28T08:21:14;49599.25;;;-146.31;90.87
2036;BME280;23642;42.658;23.350;2023-01-28T08:23:42;49642.56;;;-146.31;90.19
2036;BME280;23642;42.658;23.350;2023-01-28T08:26:12;49644.63;;;-146.31;90.36
2036;BME280;23642;42.658;23.350;2023-01-28T08:28:39;49665.25;;;-146.31;89.92
2036;BME280;23642;42.658;23.350;2023-01-28T08:31:06;49702.34;;;-146.31;89.49
2036;BME280;23642;42.658;23.350;2023-01-28T08:33:33;49768.34;;;-146.31;89.52
2036;BME280;23642;42.658;23.350;2023-01-28T08:36:01;49784.84;;;-146.31;88.93
2036;BME280;23642;42.658;23.350;2023-01-28T08:38:28;49821.97;;;-146.31;89.04
2036;BME280;23642;42.658;23.350;2023-01-28T08:40:56;49887.94;;;-146.31;88.62
2036;BME280;23642;42.658;23.350;2023-01-28T08:43:24;49993.09;;;-146.31;88.47
2036;BME280;23642;42.658;23.350;2023-01-28T08:45:54;50092.09;;;-146.31;88.62
2036;BME280;23642;42.658;23.350;2023-01-28T08:48:20;50224.06;;;-146.31;88.47
2036;BME280;23642;42.658;23.350;2023-01-28T08:50:47;50197.25;;;-146.31;87.76
2036;BME280;23642;42.658;23.350;2023-01-28T08:53:16;50310.69;;;-146.31;87.88
2036;BME280;23642;42.658;23.350;2023-01-28T08:55:44;50176.63;;;-146.31;87.77
2036;BME280;23642;42.658;23.350;2023-01-28T08:58:14;50238.50;;;-146.31;87.39
2036;BME280;23642;42.658;23.350;2023-01-28T09:00:41;50236.44;;;-146.31;86.74
2036;BME280;23642;42.658;23.350;2023-01-28T09:03:09;50215.81;;;-146.31;86.39
2036;BME280;23642;42.658;23.350;2023-01-28T09:05:36;50321.00;;;-146.31;85.82
2036;BME280;23642;42.658;23.350;2023-01-28T09:08:06;50255.00;;;-146.31;86.53
2036;BME280;23642;42.658;23.350;2023-01-28T09:10:34;50345.75;;;-146.31;85.52
2036;BME280;23642;42.658;23.350;2023-01-28T09:13:04;50411.75;;;-146.31;86.30
2036;BME280;23642;42.658;23.350;2023-01-28T09:15:32;50382.88;;;-146.31;86.60
2036;BME280;23642;42.658;23.350;2023-01-28T09:17:59;50321.00;;;-146.31;86.35
2036;BME280;23642;42.658;23.350;2023-01-28T09:20:26;50374.63;;;-146.31;85.29
2036;BME280;23642;42.658;23.350;2023-01-28T09:22:57;50370.50;;;-146.31;84.66
2036;BME280;23642;42.658;23.350;2023-01-28T09:25:24;50411.75;;;-146.31;84.83
2036;BME280;23642;42.658;23.350;2023-01-28T09:27:53;50430.31;;;-146.31;84.65
2036;BME280;23642;42.658;23.350;2023-01-28T09:30:23;50453.00;;;-146.31;84.23
2036;BME280;23642;42.658;23.350;2023-01-28T09:32:52;50471.56;;;-146.31;83.79
2036;BME280;23642;42.658;23.350;2023-01-28T09:35:19;50490.13;;;-146.31;84.79
2036;BME280;23642;42.658;23.350;2023-01-28T09:37:46;50459.19;;;-146.31;84.80
2036;BME280;23642;42.658;23.350;2023-01-28T09:40:16;50486.00;;;-146.31;85.81
2036;BME280;23642;42.658;23.350;2023-01-28T09:42:54;50407.63;;;-146.31;86.24
2036;BME280;23642;42.658;23.350;2023-01-28T09:45:27;50432.38;;;-146.31;85.11
2036;BME280;23642;42.658;23.350;2023-01-28T09:48:00;50461.25;;;-146.31;84.27
2036;BME280;23642;42.658;23.350;2023-01-28T09:50:31;50403.50;;;-146.31;86.10
2036;BME280;23642;42.658;23.350;2023-01-28T09:53:02;50461.25;;;-146.31;85.12
2036;BME280;23642;42.658;23.350;2023-01-28T09:55:32;50448.88;;;-146.31;85.77
2036;BME280;23642;42.658;23.350;2023-01-28T09:58:00;50438.56;;;-146.31;86.24
2036;BME280;23642;42.658;23.350;2023-01-28T10:00:40;50411.75;;;-146.31;86.96
2036;BME280;23642;42.658;23.350;2023-01-28T10:03:23;50457.13;;;-146.31;86.80
2036;BME280;23642;42.658;23.350;2023-01-28T10:05:58;50461.25;;;-146.31;84.98
2036;BME280;23642;42.658;23.350;2023-01-28T10:08:38;50537.56;;;-146.31;85.92
2036;BME280;23642;42.658;23.350;2023-01-28T10:11:16;50494.25;;;-146.31;86.51
2036;BME280;23642;42.658;23.350;2023-01-28T10:13:49;50525.19;;;-146.31;85.32
2036;BME280;23642;42.658;23.350;2023-01-28T10:16:25;50523.13;;;-146.31;84.90
2036;BME280;23642;42.658;23.350;2023-01-28T10:19:00;50477.75;;;-146.31;86.87
2036;BME280;23642;42.658;23.350;2023-01-28T10:21:33;50488.06;;;-146.31;86.33
2036;BME280;23642;42.658;23.350;2023-01-28T10:24:06;50471.56;;;-146.31;86.68
2036;BME280;23642;42.658;23.350;2023-01-28T10:26:36;50428.25;;;-146.31;87.37
2036;BME280;23642;42.658;23.350;2023-01-28T10:29:11;50461.25;;;-146.31;87.47
2036;BME280;23642;42.658;23.350;2023-01-28T10:31:42;50461.25;;;-146.31;87.51
2036;BME280;23642;42.658;23.350;2023-01-28T10:34:12;50459.19;;;-146.31;86.62
2036;BME280;23642;42.658;23.350;2023-01-28T10:36:39;50609.75;;;-146.31;86.37
2036;BME280;23642;42.658;23.350;2023-01-28T10:39:06;50640.69;;;-146.31;87.66
2036;BME280;23642;42.658;23.350;2023-01-28T10:41:33;50692.25;;;-146.31;87.50
2036;BME280;23642;42.658;23.350;2023-01-28T10:44:00;51026.38;;;-146.31;86.75
2036;BME280;23642;42.658;23.350;2023-01-28T10:46:32;51156.34;;;-146.31;86.46
2036;BME280;23642;42.658;23.350;2023-01-28T10:49:04;51280.13;;;-146.31;86.09
2036;BME280;23642;42.658;23.350;2023-01-28T10:51:39;51249.16;;;-146.31;84.74
2036;BME280;23642;42.658;23.350;2023-01-28T10:54:18;51257.41;;;-146.31;84.82
2036;BME280;23642;42.658;23.350;2023-01-28T10:56:46;51113.03;;;-146.31;84.20
2036;BME280;23642;42.658;23.350;2023-01-28T10:59:21;50888.19;;;-146.31;84.27
2036;BME280;23642;42.658;23.350;2023-01-28T11:01:49;50811.88;;;-146.31;84.17
2036;BME280;23642;42.658;23.350;2023-01-28T11:04:21;50778.88;;;-146.31;83.89
2036;BME280;23642;42.658;23.350;2023-01-28T11:06:55;50818.06;;;-146.31;84.32
2036;BME280;23642;42.658;23.350;2023-01-28T11:09:25;50712.88;;;-146.31;84.17
2036;BME280;23642;42.658;23.350;2023-01-28T11:11:55;50809.81;;;-146.31;83.57
2036;BME280;23642;42.658;23.350;2023-01-28T11:14:26;50793.31;;;-146.31;83.57
2036;BME280;23642;42.658;23.350;2023-01-28T11:16:56;50799.50;;;-146.31;83.56
2036;BME280;23642;42.658;23.350;2023-01-28T11:19:28;50787.13;;;-146.31;83.98
2036;BME280;23642;42.658;23.350;2023-01-28T11:21:58;50840.75;;;-146.31;83.72
2036;BME280;23642;42.658;23.350;2023-01-28T11:24:27;50871.69;;;-146.31;83.07
2036;BME280;23642;42.658;23.350;2023-01-28T11:26:57;50915.00;;;-146.31;83.93
2036;BME280;23642;42.658;23.350;2023-01-28T11:29:30;50882.00;;;-146.31;83.25
2036;BME280;23642;42.658;23.350;2023-01-28T11:31:58;50927.38;;;-146.31;83.02
2036;BME280;23642;42.658;23.350;2023-01-28T11:34:28;50939.75;;;-146.31;84.53
2036;BME280;23642;42.658;23.350;2023-01-28T11:37:12;50861.38;;;-146.31;83.34
2036;BME280;23642;42.658;23.350;2023-01-28T11:39:40;50859.31;;;-146.31;82.86
2036;BME280;23642;42.658;23.350;2023-01-28T11:42:13;50966.56;;;-146.31;81.70
2036;BME280;23642;42.658;23.350;2023-01-28T11:44:41;51022.25;;;-146.31;82.77
2036;BME280;23642;42.658;23.350;2023-01-28T11:47:34;51022.25;;;-146.31;83.72
2036;BME280;23642;42.658;23.350;2023-01-28T11:50:21;50997.50;;;-146.31;84.02
2036;BME280;23642;42.658;23.350;2023-01-28T11:53:23;51049.06;;;-146.31;83.76
2036;BME280;23642;42.658;23.350;2023-01-28T11:56:14;50981.00;;;-146.31;82.40
2036;BME280;23642;42.658;23.350;2023-01-28T11:58:48;50968.63;;;-146.31;81.89
2036;BME280;23642;42.658;23.350;2023-01-28T12:01:34;50974.81;;;-146.31;82.03
2036;BME280;23642;42.658;23.350;2023-01-28T12:04:29;50919.13;;;-146.31;81.56
2036;BME280;23642;42.658;23.350;2023-01-28T12:07:22;50939.75;;;-146.31;81.04
2036;BME280;23642;42.658;23.350;2023-01-28T12:10:08;50972.75;;;-146.31;80.64
2036;BME280;23642;42.658;23.350;2023-01-28T12:12:50;50974.81;;;-146.31;80.89
2036;BME280;23642;42.658;23.350;2023-01-28T12:15:39;50966.56;;;-146.31;80.82
2036;BME280;23642;42.658;23.350;2023-01-28T12:18:23;50968.63;;;-146.31;81.26
2036;BME280;23642;42.658;23.350;2023-01-28T12:20:59;50981.00;;;-146.31;80.14
2036;BME280;23642;42.658;23.350;2023-01-28T12:23:53;51003.69;;;-146.31;81.72
2036;BME280;23642;42.658;23.350;2023-01-28T12:26:33;50981.00;;;-146.31;81.18
2036;BME280;23642;42.658;23.350;2023-01-28T12:29:14;50995.44;;;-146.31;80.59
2036;BME280;23642;42.658;23.350;2023-01-28T12:31:59;51073.84;;;-146.31;80.59
2036;BME280;23642;42.658;23.350;2023-01-28T12:34:46;51055.25;;;-146.31;81.58
2036;BME280;23642;42.658;23.350;2023-01-28T12:37:23;51014.00;;;-146.31;82.43
2036;BME280;23642;42.658;23.350;2023-01-28T12:40:08;50972.75;;;-146.31;82.43
2036;BME280;23642;42.658;23.350;2023-01-28T12:42:40;50997.50;;;-146.31;81.04
2036;BME280;23642;42.658;23.350;2023-01-28T12:45:14;51016.06;;;-146.31;81.15
2036;BME280;23642;42.658;23.350;2023-01-28T12:47:46;51018.13;;;-146.31;80.84
2036;BME280;23642;42.658;23.350;2023-01-28T12:50:19;51059.38;;;-146.31;80.89
2036;BME280;23642;42.658;23.350;2023-01-28T12:52:49;51084.16;;;-146.31;81.22
2036;BME280;23642;42.658;23.350;2023-01-28T12:58:06;51038.75;;;-146.31;81.11
2036;BME280;23642;42.658;23.350;2023-01-28T13:00:45;51020.19;;;-146.31;81.54
2036;BME280;23642;42.658;23.350;2023-01-28T13:03:18;51026.38;;;-146.31;82.55
2036;BME280;23642;42.658;23.350;2023-01-28T13:05:49;51005.75;;;-146.31;82.58
2036;BME280;23642;42.658;23.350;2023-01-28T13:08:19;50970.69;;;-146.31;83.28
2036;BME280;23642;42.658;23.350;2023-01-28T13:10:48;50966.56;;;-146.31;82.32